Aeroporto :
LOGIN :

Iscrizione | Disclaimer

   EN    FR    IT 

 










Sommario :    VFR   VFR Marginale   IFR   IFR Intensivo   IFR Molto Intensivo
Visibilità : 
Base nubi : 
>= 8 km
>= 3000ft
5 / 8 km
1000 / 3000 ft
1500m / 5 km
500 / 1000 ft
800 / 1500m
200 / 500 ft
< 800m
< 200 ft
Simboli :   Temporali  Nebbia  Neve Forte  Precipitazioni Forti  Vento > 20 kt
SIGMETs :   Varie  Temporali  Ghiacco  Turbolenza  Onda orograficha  Ceneri Vulcaniche






- Altitudine del aeroporto : 286 ft
- Codice IATA : FFD


EGVA - RAF Fairford

ULTIMO METAR :
  • 191656Z AUTO 04014G22KT 9999 CLR 21/12 A3001 RMK AO2 SLP164 T02050122 $

METARs OBSOLETI :
  • 191556Z AUTO 04014KT 9999 CLR 22/11 A3000 RMK AO2 SLP161 T02190113 $
  • 191456Z AUTO 06011KT 9999 CLR 22/09 A3000 RMK AO2 PK WND 05026/48 SLP161 T02210089 57013 $

TAF AMD TAF EGVA
Valido dal 19 a 15 ore il 20 a 17 ore UTC


191542Z 1915/2017 04012G18KT 9999 SCT050 SCT280 QNH2999INS
TEMPO 1915/1918 05015G25KT
BECMG 1917/1918 05012KT 9999 BKN040 QNH3001INS
TEMPO 2003/2007 8000 -DZ OVC020 TX23/1915Z TN12/2006Z LAST NO AMDS AFT 1915 NEXT 2015



MetMap, La meteo Aeronautica in un colpo d'occhio ! - Copyright ORBIFLY Dicembre 2007 - Disclaimer

ORBIFLY MET'MAP TEAM :

Programmazione e sviluppo : Alexandra Zaïnal
Concezione : Baudouin d'Aumeries
Aiuto per la programmazione : Marc-Olivier Méhu
Supporto tecnico e logistico : Manuel Goepfert
Aiuto per la traduzione : Arnaldo La Scala

Contatto : metmap@orbifly.com




FONTI E CREDITI :

   NOAA